createdAt,value
2018-05-16T00:01:52.959Z,19.30
2018-05-16T00:06:52.689Z,19.30
2018-05-16T00:11:51.667Z,19.00
2018-05-16T00:14:20.581Z,19.10
2018-05-16T00:16:50.644Z,19.10
2018-05-16T00:19:19.566Z,18.90
2018-05-16T00:21:49.274Z,18.80
2018-05-16T00:24:18.571Z,18.80
2018-05-16T00:26:48.623Z,18.70
2018-05-16T00:29:18.681Z,18.80
2018-05-16T00:31:47.595Z,18.80
2018-05-16T00:34:18.589Z,18.70
2018-05-16T00:36:48.267Z,18.70
2018-05-16T00:39:17.607Z,18.70
2018-05-16T00:41:47.299Z,18.60
2018-05-16T00:44:16.622Z,18.70
2018-05-16T00:46:45.521Z,18.70
2018-05-16T00:49:14.470Z,18.40
2018-05-16T00:51:43.376Z,18.40
2018-05-16T00:56:42.360Z,18.30
2018-05-16T00:59:12.051Z,18.10
2018-05-16T01:01:41.734Z,18.10
2018-05-16T01:04:11.802Z,18.10
2018-05-16T01:06:41.472Z,18.20
2018-05-16T01:09:11.548Z,18.10
2018-05-16T01:11:40.869Z,18.10
2018-05-16T01:19:11.416Z,18.10
2018-05-16T01:21:40.714Z,18.20
2018-05-16T01:24:09.642Z,18.20
2018-05-16T01:26:38.627Z,18.30
2018-05-16T01:29:08.244Z,18.30
2018-05-16T01:31:37.168Z,18.30
2018-05-16T01:34:06.494Z,18.30
2018-05-16T01:36:36.169Z,18.30
2018-05-16T01:39:05.500Z,18.30
2018-05-16T01:41:34.430Z,18.30
2018-05-16T01:49:22.164Z,18.10
2018-05-16T01:51:51.090Z,18.00
2018-05-16T01:54:20.417Z,18.00
2018-05-16T01:56:49.719Z,17.90
2018-05-16T02:01:48.742Z,17.90
2018-05-16T02:04:18.780Z,17.90
2018-05-16T02:06:47.711Z,17.90
2018-05-16T02:09:16.626Z,17.90
2018-05-16T02:11:46.322Z,17.90
2018-05-16T02:14:15.651Z,18.00
2018-05-16T02:16:44.559Z,18.00
2018-05-16T02:19:13.474Z,17.90
2018-05-16T02:21:42.387Z,18.00
2018-05-16T02:24:11.700Z,18.00
2018-05-16T02:26:41.763Z,17.90
2018-05-16T02:31:40.739Z,18.00
2018-05-16T02:36:40.484Z,17.80
2018-05-16T02:39:09.416Z,17.70
2018-05-16T02:41:38.348Z,17.60
2018-05-16T02:44:08.406Z,17.50
2018-05-16T02:46:37.332Z,17.50
2018-05-16T02:49:06.647Z,17.50
2018-05-16T02:51:35.574Z,17.40
2018-05-16T02:54:05.256Z,17.40
2018-05-16T02:56:34.574Z,17.30
2018-05-16T02:59:04.265Z,17.50
2018-05-16T03:01:33.590Z,17.30
2018-05-16T03:04:02.616Z,17.50
2018-05-16T03:06:31.442Z,17.50
2018-05-16T03:09:01.861Z,17.50
2018-05-16T03:11:30.837Z,17.60
2018-05-16T03:13:59.716Z,17.60
2018-05-16T03:16:28.658Z,17.60
2018-05-16T03:21:27.960Z,17.60
2018-05-16T03:26:26.926Z,17.70
2018-05-16T03:28:57.352Z,17.50
2018-05-16T03:31:27.044Z,17.60
2018-05-16T03:33:57.471Z,17.50
2018-05-16T03:36:26.414Z,17.60
2018-05-16T03:38:55.321Z,17.60
2018-05-16T03:41:25.020Z,17.50
2018-05-16T03:46:24.386Z,17.40
2018-05-16T03:48:53.802Z,17.40
2018-05-16T03:51:24.228Z,17.40
2018-05-16T03:53:53.555Z,17.50
2018-05-16T03:56:23.232Z,17.50
2018-05-16T04:01:40.387Z,17.60
2018-05-16T04:06:45.414Z,17.60
2018-05-16T04:09:14.324Z,17.60
2018-05-16T04:11:43.265Z,17.60
2018-05-16T04:14:12.954Z,17.60
2018-05-16T04:16:41.904Z,17.60
2018-05-16T04:19:11.960Z,17.60
2018-05-16T04:21:40.881Z,17.50
2018-05-16T04:26:40.620Z,17.70
2018-05-16T04:31:39.593Z,17.60
2018-05-16T04:36:38.609Z,17.60
2018-05-16T04:41:38.409Z,17.40
2018-05-16T04:46:37.376Z,17.30
2018-05-16T04:49:07.437Z,17.10
2018-05-16T04:51:36.347Z,17.10
2018-05-16T04:54:05.378Z,17.20
2018-05-16T04:56:35.958Z,17.30
2018-05-16T05:01:35.695Z,17.40
2018-05-16T05:06:35.456Z,17.50
2018-05-16T05:09:05.108Z,17.50
2018-05-16T05:11:34.036Z,17.30
2018-05-16T05:16:35.056Z,17.40
2018-05-16T05:19:04.390Z,17.40
2018-05-16T05:21:33.310Z,17.30
2018-05-16T05:24:03.086Z,17.40
2018-05-16T05:26:32.680Z,17.40
2018-05-16T05:31:32.421Z,17.40
2018-05-16T05:34:01.359Z,17.40
2018-05-16T05:36:31.409Z,17.50
2018-05-16T05:44:00.448Z,17.40
2018-05-16T05:51:29.482Z,17.20
2018-05-16T05:53:59.564Z,17.20
2018-05-16T05:56:29.231Z,17.30
2018-05-16T05:58:59.997Z,17.40
2018-05-16T06:01:28.916Z,17.30
2018-05-16T06:03:58.266Z,17.40
2018-05-16T06:06:27.588Z,17.30
2018-05-16T06:11:27.154Z,17.30
2018-05-16T06:13:56.082Z,17.40
2018-05-16T06:16:26.496Z,17.30
2018-05-16T06:18:55.417Z,17.30
2018-05-16T06:21:24.347Z,17.30
2018-05-16T06:23:53.662Z,17.30
2018-05-16T06:31:22.712Z,17.00
2018-05-16T06:36:21.672Z,17.00
2018-05-16T06:38:50.593Z,16.80
2018-05-16T06:41:19.544Z,16.80
2018-05-16T06:43:49.223Z,16.90
2018-05-16T06:46:18.151Z,16.90
2018-05-16T06:48:47.129Z,16.90
2018-05-16T06:51:16.061Z,17.00
2018-05-16T06:53:46.113Z,17.10
2018-05-16T06:56:16.589Z,17.20
2018-05-16T06:58:46.036Z,15.50
2018-05-16T07:01:15.724Z,17.30
2018-05-16T07:03:45.042Z,17.30
2018-05-16T07:06:13.961Z,17.40
2018-05-16T07:08:42.895Z,17.40
2018-05-16T07:16:11.917Z,17.90
2018-05-16T07:18:41.712Z,18.20
2018-05-16T07:21:10.657Z,18.40
2018-05-16T07:26:10.402Z,18.60
2018-05-16T07:28:39.332Z,18.80
2018-05-16T07:31:09.391Z,19.00
2018-05-16T07:33:39.088Z,19.20
2018-05-16T07:36:09.522Z,19.30
2018-05-16T07:38:39.587Z,19.20
2018-05-16T07:41:08.550Z,19.30
2018-05-16T07:43:37.422Z,19.40
2018-05-16T07:46:06.331Z,19.50
2018-05-16T07:48:35.282Z,19.50
2018-05-16T07:51:04.650Z,19.50
2018-05-16T07:53:34.710Z,19.60
2018-05-16T07:56:04.482Z,19.60
2018-05-16T08:03:33.596Z,19.50
2018-05-16T08:06:03.292Z,19.40
2018-05-16T08:08:32.604Z,19.40
2018-05-16T08:13:32.352Z,19.70
2018-05-16T08:16:01.747Z,19.80
2018-05-16T08:21:00.773Z,19.70
2018-05-16T08:23:29.697Z,19.60
2018-05-16T08:25:59.392Z,19.50
2018-05-16T08:28:28.307Z,19.50
2018-05-16T08:30:57.618Z,19.60
2018-05-16T08:33:26.954Z,19.80
2018-05-16T08:35:55.967Z,20.00
2018-05-16T08:38:24.880Z,20.30
2018-05-16T08:40:53.812Z,20.30
2018-05-16T08:43:23.526Z,20.60
2018-05-16T08:48:22.500Z,20.80
2018-05-16T08:50:51.414Z,20.80
2018-05-16T08:53:21.494Z,20.90
2018-05-16T08:55:50.394Z,20.90
2018-05-16T08:58:19.342Z,20.90
2018-05-16T09:00:48.282Z,21.00
2018-05-16T09:03:19.288Z,21.20
2018-05-16T09:05:48.224Z,21.50
2018-05-16T09:08:17.936Z,21.70
2018-05-16T09:10:47.287Z,22.00
2018-05-16T09:13:16.624Z,21.80
2018-05-16T09:15:46.368Z,21.80
2018-05-16T09:18:16.084Z,21.70
2018-05-16T09:20:45.046Z,21.80
2018-05-16T09:23:14.385Z,21.80
2018-05-16T09:25:43.308Z,21.70
2018-05-16T09:28:12.222Z,21.90
2018-05-16T09:30:41.916Z,22.10
2018-05-16T09:33:12.372Z,22.10
2018-05-16T09:35:42.034Z,22.30
2018-05-16T09:38:11.072Z,22.60
2018-05-16T09:43:10.052Z,22.90
2018-05-16T09:45:39.383Z,23.00
2018-05-16T09:48:09.068Z,23.30
2018-05-16T09:50:37.970Z,23.40
2018-05-16T09:53:07.660Z,23.20
2018-05-16T09:55:36.576Z,23.30
2018-05-16T09:58:05.508Z,23.30
2018-05-16T10:00:34.453Z,23.60
2018-05-16T10:03:04.152Z,23.70
2018-05-16T10:05:33.832Z,24.10
2018-05-16T10:08:02.766Z,23.90
2018-05-16T10:10:32.480Z,24.00
2018-05-16T10:13:02.526Z,23.90
2018-05-16T10:15:31.440Z,24.20
2018-05-16T10:18:00.386Z,24.60
2018-05-16T10:20:30.786Z,24.90
2018-05-16T10:23:00.454Z,25.20
2018-05-16T10:25:29.480Z,24.80
2018-05-16T10:27:58.402Z,24.80
2018-05-16T10:30:27.309Z,25.00
2018-05-16T10:32:56.620Z,25.20
2018-05-16T10:35:25.947Z,24.90
2018-05-16T10:40:25.330Z,24.50
2018-05-16T10:42:54.237Z,24.40
2018-05-16T10:45:23.919Z,24.40
2018-05-16T10:47:52.860Z,24.00
2018-05-16T10:52:52.607Z,23.40
2018-05-16T10:57:53.728Z,23.20
2018-05-16T11:02:53.616Z,23.50
2018-05-16T11:05:23.110Z,23.40
2018-05-16T11:07:52.035Z,23.80
2018-05-16T11:10:20.991Z,24.40
2018-05-16T11:12:49.933Z,24.50
2018-05-16T11:17:48.958Z,24.60
2018-05-16T11:20:17.874Z,24.90
2018-05-16T11:22:48.298Z,25.10
2018-05-16T11:25:18.371Z,25.50
2018-05-16T11:27:47.683Z,25.50
2018-05-16T11:30:17.099Z,25.90
2018-05-16T11:35:16.082Z,26.90
2018-05-16T11:37:46.507Z,27.20
2018-05-16T11:40:15.518Z,27.40
2018-05-16T11:42:44.422Z,27.70
2018-05-16T11:45:13.360Z,27.80
2018-05-16T11:47:42.284Z,27.60
2018-05-16T11:50:11.974Z,27.90
2018-05-16T11:55:11.708Z,27.00
2018-05-16T11:57:40.650Z,27.30
2018-05-16T12:00:09.602Z,27.90
2018-05-16T12:02:38.518Z,28.40
2018-05-16T12:05:07.454Z,28.20
2018-05-16T12:07:36.374Z,28.20
2018-05-16T12:10:05.706Z,28.00
2018-05-16T12:12:35.022Z,27.20
2018-05-16T12:15:03.961Z,26.90
2018-05-16T12:17:33.662Z,26.60
2018-05-16T12:20:03.345Z,26.90
2018-05-16T12:22:32.268Z,26.50
2018-05-16T12:25:01.206Z,26.40
2018-05-16T12:27:30.890Z,26.50
2018-05-16T12:30:01.326Z,26.10
2018-05-16T12:32:30.232Z,26.90
2018-05-16T12:34:59.940Z,27.50
2018-05-16T12:39:58.907Z,27.90
2018-05-16T12:44:58.665Z,28.00
2018-05-16T12:47:28.356Z,28.00
2018-05-16T12:49:57.648Z,27.60
2018-05-16T12:52:27.349Z,27.90
2018-05-16T12:54:57.434Z,27.60
2018-05-16T12:57:27.150Z,27.90
2018-05-16T12:59:57.556Z,28.40
2018-05-16T13:02:27.262Z,28.10
2018-05-16T13:04:56.803Z,28.30
2018-05-16T13:12:28.579Z,28.10
2018-05-16T13:14:57.478Z,27.70
2018-05-16T13:17:27.923Z,27.80
2018-05-16T13:19:57.326Z,27.90
2018-05-16T13:24:57.430Z,29.00
2018-05-16T13:27:27.970Z,29.10
2018-05-16T13:32:28.460Z,29.20
2018-05-16T13:34:57.374Z,28.90
2018-05-16T13:37:26.304Z,29.00
2018-05-16T13:39:56.016Z,29.20
2018-05-16T13:42:24.939Z,28.10
2018-05-16T13:44:55.361Z,27.30
2018-05-16T13:47:25.059Z,26.70
2018-05-16T13:49:54.394Z,27.30
2018-05-16T13:52:23.331Z,26.60
2018-05-16T13:54:52.996Z,27.20
2018-05-16T13:57:21.943Z,27.40
2018-05-16T13:59:51.642Z,27.30
2018-05-16T14:02:20.568Z,26.80
2018-05-16T14:04:49.487Z,27.10
2018-05-16T14:07:18.391Z,27.10
2018-05-16T14:09:48.134Z,27.00
2018-05-16T14:12:18.192Z,26.90
2018-05-16T14:14:47.134Z,27.20
2018-05-16T14:17:16.070Z,27.30
2018-05-16T14:19:45.047Z,27.60
2018-05-16T14:24:45.566Z,25.70
2018-05-16T14:27:14.987Z,25.00
2018-05-16T14:29:44.697Z,24.40
2018-05-16T14:32:13.691Z,23.60
2018-05-16T14:34:43.380Z,22.90
2018-05-16T14:37:12.323Z,22.80
2018-05-16T14:39:41.795Z,22.70
2018-05-16T14:42:11.222Z,22.10
2018-05-16T14:44:40.135Z,22.20
2018-05-16T14:47:09.461Z,22.50
2018-05-16T14:49:40.060Z,22.50
2018-05-16T14:52:09.793Z,22.30
2018-05-16T14:54:39.472Z,22.60
2018-05-16T14:57:08.390Z,22.70
2018-05-16T15:02:08.167Z,22.20
2018-05-16T15:07:07.153Z,21.50
2018-05-16T15:09:36.892Z,21.30
2018-05-16T15:12:05.830Z,21.10
2018-05-16T15:14:34.758Z,21.40
2018-05-16T15:17:04.479Z,21.50
2018-05-16T15:19:35.236Z,21.70
2018-05-16T15:22:05.292Z,20.70
2018-05-16T15:24:34.599Z,20.00
2018-05-16T15:27:04.617Z,19.70
2018-05-16T15:29:34.300Z,19.90
2018-05-16T15:32:04.000Z,20.00
2018-05-16T15:34:34.508Z,19.90
2018-05-16T15:37:04.550Z,19.80
2018-05-16T15:39:34.996Z,19.20
2018-05-16T15:42:05.128Z,18.80
2018-05-16T15:47:04.864Z,18.50
2018-05-16T15:49:34.567Z,18.60
2018-05-16T15:57:04.392Z,18.10
2018-05-16T15:59:33.741Z,17.90
2018-05-16T16:02:02.756Z,17.90
2018-05-16T16:04:33.228Z,18.00
2018-05-16T16:07:02.536Z,18.10
2018-05-16T16:09:31.473Z,18.00
2018-05-16T16:12:01.912Z,17.70
2018-05-16T16:14:30.845Z,17.90
2018-05-16T16:17:00.580Z,18.10
2018-05-16T16:19:29.494Z,17.60
2018-05-16T16:21:58.996Z,17.60
2018-05-16T16:24:28.694Z,17.80
2018-05-16T16:29:27.688Z,18.00
2018-05-16T16:31:57.400Z,18.10
2018-05-16T16:34:26.806Z,18.40
2018-05-16T16:36:56.494Z,18.20
2018-05-16T16:41:55.957Z,17.90
2018-05-16T16:44:24.872Z,18.00
2018-05-16T16:49:24.655Z,17.50
2018-05-16T16:54:26.312Z,16.90
2018-05-16T16:59:25.371Z,16.10
2018-05-16T17:01:55.083Z,16.80
2018-05-16T17:04:24.447Z,17.00
2018-05-16T17:09:24.608Z,17.20
2018-05-16T17:11:53.592Z,16.90
2018-05-16T17:14:22.498Z,17.00
2018-05-16T17:19:21.526Z,17.00
2018-05-16T17:21:51.261Z,17.10
2018-05-16T17:24:21.074Z,16.80
2018-05-16T17:29:20.468Z,16.40
2018-05-16T17:34:20.256Z,16.50
2018-05-16T17:39:19.660Z,17.10
2018-05-16T17:41:50.126Z,17.30
2018-05-16T17:44:20.184Z,17.10
2018-05-16T17:54:20.350Z,17.00
2018-05-16T17:59:19.359Z,17.00
2018-05-16T18:04:18.362Z,16.80
2018-05-16T18:06:48.421Z,16.40
2018-05-16T18:11:48.925Z,16.20
2018-05-16T18:14:30.090Z,15.90
2018-05-16T18:22:05.161Z,15.80
2018-05-16T18:27:04.903Z,16.00
2018-05-16T18:32:03.896Z,15.70
2018-05-16T18:34:33.223Z,15.80
2018-05-16T18:37:03.311Z,15.90
2018-05-16T18:39:33.750Z,15.80
2018-05-16T18:42:02.694Z,15.60
2018-05-16T18:44:31.631Z,15.60
2018-05-16T18:49:31.397Z,15.30
2018-05-16T18:52:00.323Z,15.00
2018-05-16T18:54:30.767Z,14.90
2018-05-16T18:59:31.307Z,15.00
2018-05-16T19:02:02.381Z,14.80
2018-05-16T19:04:31.324Z,14.50
2018-05-16T19:07:00.656Z,14.40
2018-05-16T19:09:29.980Z,14.30
2018-05-16T19:11:59.297Z,14.20
2018-05-16T19:14:28.336Z,14.20
2018-05-16T19:16:58.354Z,14.00
2018-05-16T19:19:27.695Z,14.20
2018-05-16T19:21:57.411Z,14.30
2018-05-16T19:24:27.502Z,14.20
2018-05-16T19:26:58.039Z,14.30
2018-05-16T19:31:57.369Z,14.20
2018-05-16T19:34:26.707Z,14.00
2018-05-16T19:39:27.293Z,13.30
2018-05-16T19:41:56.371Z,13.30
2018-05-16T19:44:26.597Z,13.40
2018-05-16T19:46:55.525Z,13.40
2018-05-16T19:54:24.605Z,13.30
2018-05-16T19:56:53.524Z,13.30
2018-05-16T19:59:23.231Z,13.20
2018-05-16T20:01:52.164Z,13.00
2018-05-16T20:04:21.111Z,12.80
2018-05-16T20:06:51.574Z,12.80
2018-05-16T20:09:20.538Z,12.60
2018-05-16T20:11:49.495Z,12.40
2018-05-16T20:14:19.936Z,12.50
2018-05-16T20:19:20.055Z,12.50
2018-05-16T20:21:49.382Z,12.40
2018-05-16T20:24:18.321Z,12.60
2018-05-16T20:29:17.300Z,12.50
2018-05-16T20:31:46.208Z,12.60
2018-05-16T20:34:16.642Z,12.70
2018-05-16T20:36:47.071Z,12.50
2018-05-16T20:39:16.396Z,12.20
2018-05-16T20:41:45.349Z,12.00
2018-05-16T20:49:14.462Z,12.00
2018-05-16T20:51:44.500Z,12.00
2018-05-16T21:01:43.626Z,11.90
2018-05-16T21:04:12.553Z,11.90
2018-05-16T21:06:42.268Z,12.00
2018-05-16T21:09:11.951Z,12.00
2018-05-16T21:11:42.385Z,12.00
2018-05-16T21:16:41.352Z,12.00
2018-05-16T21:19:11.795Z,12.00
2018-05-16T21:21:40.843Z,12.00
2018-05-16T21:26:40.563Z,12.00
2018-05-16T21:31:39.531Z,11.90
2018-05-16T21:34:09.658Z,12.00
2018-05-16T21:41:38.719Z,11.60
2018-05-16T21:46:38.479Z,11.70
2018-05-16T21:49:07.414Z,11.60
2018-05-16T21:51:36.340Z,11.80
2018-05-16T21:56:35.320Z,11.60
2018-05-16T21:59:04.251Z,11.50
2018-05-16T22:01:33.191Z,11.60
2018-05-16T22:06:32.177Z,11.80
2018-05-16T22:11:31.192Z,12.00
2018-05-16T22:14:00.496Z,12.00
2018-05-16T22:16:29.811Z,12.10
2018-05-16T22:18:59.948Z,12.10
2018-05-16T22:21:28.883Z,12.30
2018-05-16T22:23:59.315Z,11.80
2018-05-16T22:28:59.761Z,12.00
2018-05-16T22:31:34.354Z,11.90
2018-05-16T22:41:56.574Z,11.60
2018-05-16T22:47:01.612Z,11.50
2018-05-16T22:49:30.527Z,11.80
2018-05-16T22:51:59.452Z,11.80
2018-05-16T22:54:29.142Z,11.80
2018-05-16T22:56:58.132Z,11.80
2018-05-16T23:01:57.462Z,11.80
2018-05-16T23:09:26.497Z,11.70
2018-05-16T23:11:56.204Z,11.80
2018-05-16T23:14:26.717Z,11.90
2018-05-16T23:31:28.356Z,11.30
2018-05-16T23:33:57.315Z,11.50
2018-05-16T23:36:26.628Z,11.30
2018-05-16T23:38:56.342Z,11.20
2018-05-16T23:41:25.243Z,11.20
2018-05-16T23:46:24.231Z,11.40
2018-05-16T23:51:23.220Z,11.60
